createdAt,value
2017-09-21T00:00:17.635Z,9.30
2017-09-21T00:02:18.603Z,9.30
2017-09-21T00:04:20.293Z,9.20
2017-09-21T00:06:21.256Z,9.20
2017-09-21T00:08:22.204Z,9.20
2017-09-21T00:10:23.178Z,9.20
2017-09-21T00:12:24.129Z,9.20
2017-09-21T00:14:25.084Z,9.20
2017-09-21T00:16:26.057Z,9.20
2017-09-21T00:18:27.019Z,9.20
2017-09-21T00:20:27.977Z,9.10
2017-09-21T00:22:28.932Z,9.10
2017-09-21T00:24:29.884Z,9.10
2017-09-21T00:26:30.846Z,9.10
2017-09-21T00:28:31.817Z,9.00
2017-09-21T00:30:33.540Z,9.00
2017-09-21T00:32:34.520Z,9.00
2017-09-21T00:34:35.496Z,9.00
2017-09-21T00:36:36.448Z,9.00
2017-09-21T00:38:37.393Z,9.00
2017-09-21T00:40:38.379Z,9.00
2017-09-21T00:42:39.312Z,9.00
2017-09-21T00:44:40.273Z,9.10
2017-09-21T00:46:41.260Z,9.10
2017-09-21T00:48:42.204Z,9.00
2017-09-21T00:50:43.182Z,9.00
2017-09-21T00:52:44.141Z,9.10
2017-09-21T00:54:45.102Z,9.10
2017-09-21T00:56:46.076Z,9.10
2017-09-21T00:58:47.789Z,9.10
2017-09-21T01:00:48.761Z,9.00
2017-09-21T01:02:49.744Z,9.00
2017-09-21T01:04:50.724Z,9.00
2017-09-21T01:06:51.697Z,9.00
2017-09-21T01:08:52.651Z,9.00
2017-09-21T01:10:53.634Z,9.00
2017-09-21T01:12:54.598Z,9.00
2017-09-21T01:14:55.586Z,9.00
2017-09-21T01:16:56.561Z,9.00
2017-09-21T01:18:58.275Z,8.80
2017-09-21T01:20:59.240Z,8.80
2017-09-21T01:23:00.205Z,8.70
2017-09-21T01:25:01.901Z,8.70
2017-09-21T01:27:02.874Z,8.70
2017-09-21T01:29:03.835Z,8.60
2017-09-21T01:31:04.814Z,8.60
2017-09-21T01:33:06.561Z,8.60
2017-09-21T01:35:07.520Z,8.60
2017-09-21T01:37:09.238Z,8.60
2017-09-21T01:39:10.232Z,8.60
2017-09-21T01:41:11.953Z,8.60
2017-09-21T01:43:12.941Z,8.60
2017-09-21T01:45:14.652Z,8.70
2017-09-21T01:47:15.610Z,8.70
2017-09-21T01:49:16.616Z,8.60
2017-09-21T01:51:17.629Z,8.70
2017-09-21T01:53:18.633Z,8.70
2017-09-21T01:55:19.614Z,8.60
2017-09-21T01:57:20.574Z,8.60
2017-09-21T01:59:22.280Z,8.60
2017-09-21T02:01:23.260Z,8.60
2017-09-21T02:03:24.220Z,8.60
2017-09-21T02:05:25.193Z,8.60
2017-09-21T02:07:26.909Z,8.60
2017-09-21T02:09:28.653Z,8.60
2017-09-21T02:11:29.636Z,8.60
2017-09-21T02:13:30.600Z,8.60
2017-09-21T02:15:32.313Z,8.60
2017-09-21T02:17:33.273Z,8.60
2017-09-21T02:19:34.229Z,8.60
2017-09-21T02:21:35.185Z,8.60
2017-09-21T02:23:36.133Z,8.70
2017-09-21T02:25:37.098Z,8.80
2017-09-21T02:27:38.789Z,8.80
2017-09-21T02:29:39.749Z,8.70
2017-09-21T02:31:40.717Z,8.80
2017-09-21T02:33:41.697Z,8.80
2017-09-21T02:35:43.400Z,8.90
2017-09-21T02:37:44.360Z,8.90
2017-09-21T02:39:45.321Z,8.90
2017-09-21T02:41:46.296Z,8.90
2017-09-21T02:43:48.003Z,8.90
2017-09-21T02:45:48.969Z,8.90
2017-09-21T02:47:49.925Z,8.90
2017-09-21T02:49:50.894Z,8.90
2017-09-21T02:51:52.609Z,9.00
2017-09-21T02:53:53.582Z,8.90
2017-09-21T02:55:54.545Z,9.00
2017-09-21T02:57:56.258Z,8.90
2017-09-21T02:59:57.216Z,8.90
2017-09-21T03:01:58.192Z,8.90
2017-09-21T03:03:59.221Z,8.90
2017-09-21T03:06:00.187Z,8.80
2017-09-21T03:08:01.132Z,8.80
2017-09-21T03:10:02.085Z,8.80
2017-09-21T03:12:03.790Z,8.70
2017-09-21T03:14:04.749Z,8.70
2017-09-21T03:16:05.705Z,8.70
2017-09-21T03:18:06.653Z,8.60
2017-09-21T03:20:07.621Z,8.50
2017-09-21T03:22:08.585Z,8.40
2017-09-21T03:24:10.286Z,8.40
2017-09-21T03:26:11.252Z,8.40
2017-09-21T03:28:12.203Z,8.50
2017-09-21T03:30:13.165Z,8.50
2017-09-21T03:32:14.120Z,8.40
2017-09-21T03:34:15.073Z,8.40
2017-09-21T03:36:16.772Z,8.40
2017-09-21T03:38:17.717Z,8.40
2017-09-21T03:40:18.664Z,8.40
2017-09-21T03:42:19.642Z,8.50
2017-09-21T03:44:20.625Z,8.40
2017-09-21T03:46:22.343Z,8.50
2017-09-21T03:48:23.297Z,8.50
2017-09-21T03:50:24.253Z,8.50
2017-09-21T03:52:25.207Z,8.50
2017-09-21T03:54:26.153Z,8.40
2017-09-21T03:56:27.118Z,8.40
2017-09-21T03:58:28.812Z,8.40
2017-09-21T04:00:29.761Z,8.40
2017-09-21T04:02:30.724Z,8.40
2017-09-21T04:04:31.680Z,8.50
2017-09-21T04:06:32.662Z,8.50
2017-09-21T04:08:34.361Z,8.50
2017-09-21T04:10:35.317Z,8.50
2017-09-21T04:12:36.280Z,8.60
2017-09-21T04:14:37.240Z,8.60
2017-09-21T04:16:38.198Z,8.60
2017-09-21T04:18:39.912Z,8.70
2017-09-21T04:20:41.640Z,8.80
2017-09-21T04:22:43.354Z,8.80
2017-09-21T04:24:44.347Z,8.80
2017-09-21T04:26:46.056Z,8.90
2017-09-21T04:28:47.023Z,8.80
2017-09-21T04:30:47.981Z,8.90
2017-09-21T04:32:49.004Z,8.90
2017-09-21T04:34:49.971Z,8.90
2017-09-21T04:36:50.925Z,8.90
2017-09-21T04:38:51.889Z,8.90
2017-09-21T04:40:53.597Z,8.90
2017-09-21T04:42:55.312Z,9.00
2017-09-21T04:44:57.003Z,9.00
2017-09-21T04:46:57.948Z,9.00
2017-09-21T04:48:58.905Z,9.00
2017-09-21T04:50:59.877Z,9.10
2017-09-21T04:53:01.112Z,9.10
2017-09-21T04:55:02.102Z,9.10
2017-09-21T04:57:03.840Z,9.10
2017-09-21T04:59:04.804Z,9.10
2017-09-21T05:01:05.753Z,9.20
2017-09-21T05:03:07.467Z,9.20
2017-09-21T05:05:08.433Z,9.20
2017-09-21T05:07:09.396Z,9.20
2017-09-21T05:09:10.367Z,9.20
2017-09-21T05:11:11.337Z,9.20
2017-09-21T05:13:12.283Z,9.20
2017-09-21T05:15:13.260Z,9.30
2017-09-21T05:17:14.205Z,9.30
2017-09-21T05:19:15.179Z,9.30
2017-09-21T05:21:16.138Z,9.20
2017-09-21T05:23:17.822Z,9.30
2017-09-21T05:25:18.842Z,9.30
2017-09-21T05:27:20.550Z,9.20
2017-09-21T05:29:21.517Z,9.20
2017-09-21T05:31:22.502Z,9.20
2017-09-21T05:33:24.196Z,9.10
2017-09-21T05:35:25.177Z,9.10
2017-09-21T05:37:26.151Z,9.10
2017-09-21T05:39:27.861Z,9.00
2017-09-21T05:41:28.841Z,9.00
2017-09-21T05:43:29.825Z,9.00
2017-09-21T05:45:30.797Z,9.00
2017-09-21T05:47:31.762Z,9.00
2017-09-21T05:49:32.721Z,9.00
2017-09-21T05:51:33.681Z,9.10
2017-09-21T05:53:34.650Z,9.10
2017-09-21T05:55:36.356Z,9.10
2017-09-21T05:57:37.308Z,9.10
2017-09-21T05:59:38.253Z,9.10
2017-09-21T06:01:39.213Z,9.10
2017-09-21T06:03:40.183Z,9.10
2017-09-21T06:05:41.880Z,9.30
2017-09-21T06:07:42.828Z,9.20
2017-09-21T06:09:43.796Z,9.30
2017-09-21T06:11:44.749Z,9.40
2017-09-21T06:13:45.716Z,9.50
2017-09-21T06:15:46.681Z,9.50
2017-09-21T06:17:48.396Z,9.70
2017-09-21T06:19:49.352Z,9.70
2017-09-21T06:21:50.323Z,9.70
2017-09-21T06:23:51.292Z,9.80
2017-09-21T06:25:52.996Z,9.80
2017-09-21T06:27:53.947Z,9.80
2017-09-21T06:29:54.910Z,9.80
2017-09-21T06:31:55.880Z,9.80
2017-09-21T06:33:57.582Z,9.90
2017-09-21T06:35:58.550Z,9.90
2017-09-21T06:37:59.516Z,10.00
2017-09-21T06:40:00.491Z,10.00
2017-09-21T06:42:02.200Z,10.20
2017-09-21T06:44:03.913Z,10.20
2017-09-21T06:46:05.641Z,10.30
2017-09-21T06:48:06.618Z,10.30
2017-09-21T06:50:08.353Z,10.40
2017-09-21T06:52:09.329Z,10.40
2017-09-21T06:54:11.053Z,10.50
2017-09-21T06:56:12.029Z,10.50
2017-09-21T06:58:13.731Z,10.70
2017-09-21T07:00:14.697Z,10.70
2017-09-21T07:02:15.669Z,10.80
2017-09-21T07:04:16.645Z,10.90
2017-09-21T07:06:18.374Z,11.10
2017-09-21T07:08:19.345Z,11.10
2017-09-21T07:10:21.045Z,11.30
2017-09-21T07:12:22.019Z,11.30
2017-09-21T07:14:22.987Z,11.40
2017-09-21T07:16:23.969Z,11.60
2017-09-21T07:18:24.951Z,11.70
2017-09-21T07:20:25.924Z,11.90
2017-09-21T07:22:26.908Z,12.00
2017-09-21T07:24:27.886Z,12.10
2017-09-21T07:26:28.848Z,12.20
2017-09-21T07:28:29.825Z,12.30
2017-09-21T07:30:31.532Z,12.50
2017-09-21T07:32:32.521Z,12.50
2017-09-21T07:34:33.595Z,12.60
2017-09-21T07:36:35.350Z,12.90
2017-09-21T07:38:37.114Z,13.10
2017-09-21T07:40:38.852Z,13.30
2017-09-21T07:42:39.833Z,13.30
2017-09-21T07:44:41.545Z,13.40
2017-09-21T07:46:42.501Z,13.30
2017-09-21T07:48:43.493Z,13.50
2017-09-21T07:50:44.482Z,13.60
2017-09-21T07:52:45.486Z,13.70
2017-09-21T07:54:46.475Z,13.70
2017-09-21T07:56:47.444Z,13.90
2017-09-21T07:58:48.441Z,14.10
2017-09-21T08:00:49.425Z,14.80
2017-09-21T08:02:50.409Z,15.50
2017-09-21T08:04:52.131Z,16.50
2017-09-21T08:06:53.105Z,16.40
2017-09-21T08:08:54.082Z,16.90
2017-09-21T08:10:55.057Z,17.50
2017-09-21T08:12:56.017Z,17.80
2017-09-21T08:14:56.977Z,17.80
2017-09-21T08:16:57.929Z,18.40
2017-09-21T08:18:58.897Z,18.60
2017-09-21T08:21:00.592Z,18.30
2017-09-21T08:23:01.540Z,18.30
2017-09-21T08:25:02.499Z,17.60
2017-09-21T08:27:03.466Z,17.00
2017-09-21T08:29:04.421Z,16.50
2017-09-21T08:31:05.360Z,16.10
2017-09-21T08:33:06.312Z,15.80
2017-09-21T08:35:07.260Z,15.70
2017-09-21T08:37:08.206Z,15.70
2017-09-21T08:39:09.154Z,15.50
2017-09-21T08:41:10.106Z,15.50
2017-09-21T08:43:11.056Z,15.70
2017-09-21T08:45:12.753Z,15.90
2017-09-21T08:47:13.706Z,15.90
2017-09-21T08:49:14.688Z,16.50
2017-09-21T08:51:15.633Z,16.40
2017-09-21T08:53:16.582Z,17.00
2017-09-21T08:55:17.532Z,17.50
2017-09-21T08:57:18.476Z,18.00
2017-09-21T08:59:19.438Z,18.50
2017-09-21T09:01:21.130Z,19.20
2017-09-21T09:03:22.083Z,19.10
2017-09-21T09:05:23.052Z,19.50
2017-09-21T09:07:24.002Z,19.90
2017-09-21T09:09:24.945Z,20.20
2017-09-21T09:11:25.902Z,20.10
2017-09-21T09:13:26.849Z,20.10
2017-09-21T09:15:27.821Z,20.30
2017-09-21T09:17:29.515Z,20.30
2017-09-21T09:19:30.456Z,20.30
2017-09-21T09:21:31.418Z,20.30
2017-09-21T09:23:32.373Z,20.80
2017-09-21T09:25:33.326Z,21.00
2017-09-21T09:27:34.285Z,21.50
2017-09-21T09:29:35.233Z,21.50
2017-09-21T09:31:36.176Z,21.80
2017-09-21T09:33:37.123Z,22.10
2017-09-21T09:35:38.074Z,22.00
2017-09-21T09:37:39.029Z,22.10
2017-09-21T09:39:39.981Z,22.10
2017-09-21T09:41:40.937Z,21.90
2017-09-21T09:43:42.630Z,22.20
2017-09-21T09:45:50.667Z,22.20
2017-09-21T09:47:51.617Z,22.20
2017-09-21T09:49:52.567Z,22.30
2017-09-21T09:51:53.529Z,22.70
2017-09-21T09:53:54.472Z,22.50
2017-09-21T09:55:55.417Z,22.60
2017-09-21T09:57:56.369Z,22.50
2017-09-21T09:59:57.312Z,22.60
2017-09-21T10:01:58.270Z,22.90
2017-09-21T10:03:59.965Z,22.50
2017-09-21T10:06:00.973Z,22.50
2017-09-21T10:08:01.909Z,22.40
2017-09-21T10:10:02.853Z,22.70
2017-09-21T10:12:03.812Z,22.80
2017-09-21T10:14:05.493Z,22.90
2017-09-21T10:16:07.178Z,23.30
2017-09-21T10:18:08.124Z,23.30
2017-09-21T10:20:09.066Z,22.80
2017-09-21T10:22:10.023Z,22.70
2017-09-21T10:24:10.973Z,23.10
2017-09-21T10:26:11.917Z,23.40
2017-09-21T10:28:12.889Z,23.80
2017-09-21T10:30:13.837Z,24.20
2017-09-21T10:32:14.792Z,23.90
2017-09-21T10:34:17.212Z,24.70
2017-09-21T10:36:18.245Z,24.70
2017-09-21T10:38:19.994Z,24.70
2017-09-21T10:40:20.928Z,24.70
2017-09-21T10:42:21.872Z,24.70
2017-09-21T10:44:22.817Z,24.60
2017-09-21T10:46:23.765Z,24.30
2017-09-21T10:48:24.714Z,25.00
2017-09-21T10:50:25.652Z,25.30
2017-09-21T10:52:26.603Z,25.30
2017-09-21T10:54:27.552Z,25.60
2017-09-21T10:56:28.492Z,25.20
2017-09-21T10:58:29.443Z,25.50
2017-09-21T11:00:30.406Z,25.40
2017-09-21T11:02:32.084Z,25.80
2017-09-21T11:04:33.032Z,25.80
2017-09-21T11:06:33.972Z,25.90
2017-09-21T11:08:34.913Z,25.60
2017-09-21T11:10:36.596Z,25.10
2017-09-21T11:12:37.541Z,25.10
2017-09-21T11:14:38.472Z,24.20
2017-09-21T11:16:39.409Z,23.80
2017-09-21T11:18:41.101Z,24.80
2017-09-21T11:20:42.044Z,24.90
2017-09-21T11:22:43.002Z,25.00
2017-09-21T11:24:43.980Z,25.20
2017-09-21T11:26:44.925Z,25.70
2017-09-21T11:28:45.870Z,26.10
2017-09-21T11:30:46.818Z,25.70
2017-09-21T11:32:47.766Z,26.20
2017-09-21T11:34:48.713Z,25.20
2017-09-21T11:36:49.657Z,24.80
2017-09-21T11:38:50.607Z,23.80
2017-09-21T11:40:51.545Z,23.50
2017-09-21T11:42:52.488Z,23.90
2017-09-21T11:44:53.430Z,23.90
2017-09-21T11:46:54.367Z,24.30
2017-09-21T11:48:56.064Z,24.70
2017-09-21T11:50:57.761Z,24.90
2017-09-21T11:52:58.705Z,24.90
2017-09-21T11:54:59.653Z,25.30
2017-09-21T11:57:00.606Z,25.60
2017-09-21T11:59:01.561Z,25.10
2017-09-21T12:01:02.518Z,25.20
2017-09-21T12:03:03.466Z,24.80
2017-09-21T12:05:04.404Z,25.30
2017-09-21T12:07:05.349Z,24.80
2017-09-21T12:09:06.300Z,24.30
2017-09-21T12:11:07.241Z,23.90
2017-09-21T12:13:08.200Z,23.50
2017-09-21T12:15:09.145Z,22.90
2017-09-21T12:17:10.084Z,22.20
2017-09-21T12:19:11.776Z,21.60
2017-09-21T12:21:12.727Z,21.60
2017-09-21T12:23:14.409Z,21.20
2017-09-21T12:25:15.356Z,21.20
2017-09-21T12:27:23.177Z,21.10
2017-09-21T12:29:24.121Z,21.00
2017-09-21T12:31:25.069Z,20.90
2017-09-21T12:33:26.026Z,20.70
2017-09-21T12:35:26.970Z,20.60
2017-09-21T12:37:27.910Z,20.50
2017-09-21T12:39:28.850Z,20.50
2017-09-21T12:41:29.811Z,20.50
2017-09-21T12:43:30.751Z,20.40
2017-09-21T12:45:31.697Z,20.30
2017-09-21T12:47:32.645Z,20.40
2017-09-21T12:49:33.584Z,20.30
2017-09-21T12:51:34.532Z,20.30
2017-09-21T12:53:35.481Z,20.20
2017-09-21T12:55:36.441Z,20.30
2017-09-21T12:57:37.380Z,20.30
2017-09-21T12:59:45.161Z,20.20
2017-09-21T13:01:46.117Z,20.20
2017-09-21T13:03:47.061Z,20.20
2017-09-21T13:05:48.034Z,20.10
2017-09-21T13:07:49.045Z,20.10
2017-09-21T13:09:49.984Z,20.00
2017-09-21T13:11:50.937Z,20.00
2017-09-21T13:13:51.937Z,20.00
2017-09-21T13:15:52.897Z,19.90
2017-09-21T13:17:53.838Z,19.90
2017-09-21T13:19:54.780Z,19.80
2017-09-21T13:21:55.733Z,19.80
2017-09-21T13:23:56.676Z,19.80
2017-09-21T13:25:57.630Z,19.70
2017-09-21T13:27:59.324Z,19.70
2017-09-21T13:30:00.269Z,19.70
2017-09-21T13:32:01.219Z,19.70
2017-09-21T13:34:02.170Z,19.60
2017-09-21T13:36:03.128Z,19.50
2017-09-21T13:38:04.080Z,19.50
2017-09-21T13:40:05.022Z,19.50
2017-09-21T13:42:05.994Z,19.50
2017-09-21T13:44:06.933Z,19.40
2017-09-21T13:46:07.884Z,19.40
2017-09-21T13:48:08.830Z,19.40
2017-09-21T13:50:09.785Z,19.40
2017-09-21T13:52:10.741Z,19.40
2017-09-21T13:54:12.449Z,19.40
2017-09-21T13:56:13.400Z,19.40
2017-09-21T13:58:14.356Z,19.40
2017-09-21T14:00:15.299Z,19.40
2017-09-21T14:02:16.264Z,19.50
2017-09-21T14:04:17.213Z,19.40
2017-09-21T14:06:18.169Z,19.40
2017-09-21T14:08:19.111Z,19.40
2017-09-21T14:10:20.058Z,19.40
2017-09-21T14:12:21.010Z,19.30
2017-09-21T14:14:21.944Z,19.30
2017-09-21T14:16:23.019Z,19.30
2017-09-21T14:18:24.717Z,19.10
2017-09-21T14:20:25.660Z,19.10
2017-09-21T14:22:26.616Z,19.20
2017-09-21T14:24:27.565Z,19.10
2017-09-21T14:26:28.536Z,19.00
2017-09-21T14:28:29.496Z,19.10
2017-09-21T14:30:30.450Z,19.10
2017-09-21T14:32:32.153Z,19.10
2017-09-21T14:34:33.117Z,19.10
2017-09-21T14:36:34.804Z,19.20
2017-09-21T14:38:35.765Z,19.10
2017-09-21T14:40:37.459Z,19.10
2017-09-21T14:42:38.407Z,19.10
2017-09-21T14:44:39.353Z,19.00
2017-09-21T14:46:40.309Z,19.00
2017-09-21T14:48:41.271Z,19.00
2017-09-21T14:50:42.225Z,19.10
2017-09-21T14:52:43.189Z,19.00
2017-09-21T14:54:44.136Z,19.00
2017-09-21T14:56:45.096Z,19.00
2017-09-21T14:58:46.784Z,18.80
2017-09-21T15:00:47.750Z,18.80
2017-09-21T15:02:48.710Z,18.70
2017-09-21T15:04:49.656Z,18.60
2017-09-21T15:06:50.617Z,18.70
2017-09-21T15:08:51.573Z,18.70
2017-09-21T15:10:52.540Z,18.70
2017-09-21T15:12:54.233Z,18.50
2017-09-21T15:14:55.181Z,18.50
2017-09-21T15:16:56.125Z,18.60
2017-09-21T15:18:57.080Z,18.60
2017-09-21T15:20:58.041Z,18.50
2017-09-21T15:22:59.004Z,18.40
2017-09-21T15:24:59.962Z,18.20
2017-09-21T15:27:00.940Z,18.30
2017-09-21T15:29:01.892Z,18.20
2017-09-21T15:31:02.865Z,18.10
2017-09-21T15:33:03.833Z,18.00
2017-09-21T15:35:05.152Z,18.00
2017-09-21T15:37:06.112Z,17.90
2017-09-21T15:39:07.065Z,17.90
2017-09-21T15:41:08.012Z,17.80
2017-09-21T15:43:08.961Z,17.80
2017-09-21T15:45:09.924Z,17.70
2017-09-21T15:47:10.881Z,17.70
2017-09-21T15:49:11.856Z,17.60
2017-09-21T15:51:19.741Z,17.60
2017-09-21T15:53:20.697Z,17.60
2017-09-21T15:55:22.381Z,17.50
2017-09-21T15:57:23.344Z,17.50
2017-09-21T15:59:24.305Z,17.50
2017-09-21T16:01:25.256Z,17.50
2017-09-21T16:03:26.217Z,17.40
2017-09-21T16:05:27.164Z,17.40
2017-09-21T16:07:28.126Z,17.40
2017-09-21T16:09:29.901Z,17.20
2017-09-21T16:11:31.740Z,17.10
2017-09-21T16:13:32.713Z,17.10
2017-09-21T16:15:34.413Z,17.00
2017-09-21T16:17:35.368Z,17.00
2017-09-21T16:19:36.324Z,16.90
2017-09-21T16:21:37.321Z,16.90
2017-09-21T16:23:38.284Z,16.90
2017-09-21T16:25:39.241Z,16.80
2017-09-21T16:27:40.202Z,16.80
2017-09-21T16:29:41.173Z,16.90
2017-09-21T16:31:42.116Z,16.80
2017-09-21T16:33:43.085Z,16.80
2017-09-21T16:35:44.781Z,16.80
2017-09-21T16:37:45.737Z,16.80
2017-09-21T16:39:46.708Z,16.80
2017-09-21T16:41:47.673Z,16.80
2017-09-21T16:43:48.638Z,16.80
2017-09-21T16:45:50.346Z,16.60
2017-09-21T16:47:51.298Z,16.60
2017-09-21T16:49:52.273Z,16.50
2017-09-21T16:51:53.236Z,16.40
2017-09-21T16:53:54.944Z,16.30
2017-09-21T16:55:55.905Z,16.30
2017-09-21T16:57:56.844Z,16.30
2017-09-21T16:59:57.801Z,16.30
2017-09-21T17:01:58.779Z,16.10
2017-09-21T17:04:07.413Z,16.10
2017-09-21T17:06:09.129Z,16.00
2017-09-21T17:08:10.088Z,16.00
2017-09-21T17:10:11.040Z,16.00
2017-09-21T17:12:12.001Z,15.90
2017-09-21T17:14:13.687Z,15.80
2017-09-21T17:16:14.654Z,15.80
2017-09-21T17:18:15.620Z,15.70
2017-09-21T17:20:16.592Z,15.60
2017-09-21T17:22:17.537Z,15.60
2017-09-21T17:24:18.491Z,15.60
2017-09-21T17:26:20.185Z,15.50
2017-09-21T17:28:21.132Z,15.50
2017-09-21T17:30:22.147Z,15.40
2017-09-21T17:32:23.852Z,15.30
2017-09-21T17:34:25.912Z,15.30
2017-09-21T17:36:26.870Z,15.30
2017-09-21T17:38:27.817Z,15.20
2017-09-21T17:40:28.781Z,15.20
2017-09-21T17:42:29.736Z,15.10
2017-09-21T17:44:30.696Z,15.10
2017-09-21T17:46:31.691Z,15.00
2017-09-21T17:48:32.624Z,15.00
2017-09-21T17:50:33.590Z,15.00
2017-09-21T17:52:34.765Z,15.00
2017-09-21T17:54:35.833Z,15.00
2017-09-21T17:56:37.175Z,14.90
2017-09-21T17:58:38.244Z,14.90
2017-09-21T18:00:39.976Z,14.90
2017-09-21T18:02:41.050Z,14.90
2017-09-21T18:04:42.104Z,14.90
2017-09-21T18:06:43.160Z,14.90
2017-09-21T18:08:44.928Z,14.80
2017-09-21T18:10:46.625Z,14.80
2017-09-21T18:12:47.746Z,14.80
2017-09-21T18:14:49.440Z,14.70
2017-09-21T18:16:50.454Z,14.70
2017-09-21T18:18:52.292Z,14.60
2017-09-21T18:20:53.380Z,14.60
2017-09-21T18:22:54.401Z,14.60
2017-09-21T18:24:55.353Z,14.50
2017-09-21T18:26:57.122Z,14.40
2017-09-21T18:28:58.800Z,14.40
2017-09-21T18:31:00.493Z,14.40
2017-09-21T18:33:01.476Z,14.40
2017-09-21T18:35:02.425Z,14.40
2017-09-21T18:37:03.401Z,14.40
2017-09-21T18:39:04.530Z,14.40
2017-09-21T18:41:21.272Z,14.40
2017-09-21T18:43:22.224Z,14.40
2017-09-21T18:45:23.248Z,14.30
2017-09-21T18:47:25.005Z,14.20
2017-09-21T18:49:26.058Z,14.20
2017-09-21T18:51:27.816Z,14.20
2017-09-21T18:53:29.596Z,14.10
2017-09-21T18:55:31.319Z,14.10
2017-09-21T18:57:32.277Z,14.10
2017-09-21T18:59:33.237Z,14.00
2017-09-21T19:01:34.191Z,14.00
2017-09-21T19:03:35.886Z,14.00
2017-09-21T19:05:36.841Z,14.00
2017-09-21T19:07:37.825Z,13.90
2017-09-21T19:09:38.884Z,13.90
2017-09-21T19:11:39.832Z,13.80
2017-09-21T19:13:41.528Z,13.70
2017-09-21T19:15:42.464Z,13.70
2017-09-21T19:17:43.432Z,13.60
2017-09-21T19:19:44.397Z,13.50
2017-09-21T19:21:45.349Z,13.50
2017-09-21T19:23:46.320Z,13.60
2017-09-21T19:25:47.272Z,13.50
2017-09-21T19:27:49.027Z,13.50
2017-09-21T19:29:49.978Z,13.50
2017-09-21T19:31:50.929Z,13.50
2017-09-21T19:33:52.622Z,13.50
2017-09-21T19:35:53.596Z,13.50
2017-09-21T19:37:54.695Z,13.50
2017-09-21T19:39:56.580Z,13.50
2017-09-21T19:41:57.546Z,13.50
2017-09-21T19:43:58.502Z,13.30
2017-09-21T19:45:59.589Z,13.00
2017-09-21T19:48:00.545Z,13.10
2017-09-21T19:50:02.241Z,13.00
2017-09-21T19:52:03.198Z,12.90
2017-09-21T19:54:04.162Z,13.00
2017-09-21T19:56:05.194Z,13.00
2017-09-21T19:58:06.154Z,13.00
2017-09-21T20:00:07.108Z,12.90
2017-09-21T20:02:08.065Z,12.90
2017-09-21T20:04:09.008Z,12.90
2017-09-21T20:06:09.985Z,12.80
2017-09-21T20:08:11.680Z,12.80
2017-09-21T20:10:12.637Z,12.80
2017-09-21T20:12:13.596Z,12.70
2017-09-21T20:14:14.553Z,12.70
2017-09-21T20:16:16.253Z,12.80
2017-09-21T20:18:17.966Z,12.80
2017-09-21T20:20:18.925Z,12.80
2017-09-21T20:22:19.873Z,12.80
2017-09-21T20:24:20.825Z,12.80
2017-09-21T20:26:21.780Z,12.80
2017-09-21T20:28:22.738Z,12.70
2017-09-21T20:30:24.450Z,12.60
2017-09-21T20:32:25.393Z,12.60
2017-09-21T20:34:26.350Z,12.60
2017-09-21T20:36:27.316Z,12.60
2017-09-21T20:38:28.270Z,12.60
2017-09-21T20:40:30.039Z,12.60
2017-09-21T20:42:31.732Z,12.50
2017-09-21T20:44:32.685Z,12.50
2017-09-21T20:46:33.697Z,12.50
2017-09-21T20:48:35.393Z,12.50
2017-09-21T20:50:36.354Z,12.40
2017-09-21T20:52:37.353Z,12.40
2017-09-21T20:54:39.120Z,12.40
2017-09-21T20:56:40.873Z,12.40
2017-09-21T20:58:42.572Z,12.40
2017-09-21T21:00:43.538Z,12.40
2017-09-21T21:02:44.525Z,12.40
2017-09-21T21:04:45.473Z,12.30
2017-09-21T21:06:46.427Z,12.30
2017-09-21T21:08:48.121Z,12.30
2017-09-21T21:10:49.090Z,12.30
2017-09-21T21:12:50.038Z,12.20
2017-09-21T21:14:50.989Z,12.10
2017-09-21T21:16:51.944Z,12.20
2017-09-21T21:18:52.892Z,12.10
2017-09-21T21:20:53.853Z,12.10
2017-09-21T21:22:54.890Z,12.10
2017-09-21T21:24:55.885Z,12.00
2017-09-21T21:26:56.837Z,12.00
2017-09-21T21:28:57.793Z,11.90
2017-09-21T21:30:58.765Z,11.90
2017-09-21T21:32:59.739Z,11.90
2017-09-21T21:35:01.422Z,11.90
2017-09-21T21:37:02.386Z,11.90
2017-09-21T21:39:03.358Z,11.90
2017-09-21T21:41:04.300Z,11.70
2017-09-21T21:43:05.258Z,11.70
2017-09-21T21:45:06.226Z,11.70
2017-09-21T21:47:07.168Z,11.60
2017-09-21T21:49:08.117Z,11.60
2017-09-21T21:51:09.825Z,11.50
2017-09-21T21:53:10.783Z,11.50
2017-09-21T21:55:11.745Z,11.50
2017-09-21T21:57:12.702Z,11.50
2017-09-21T21:59:13.657Z,11.40
2017-09-21T22:01:14.610Z,11.40
2017-09-21T22:03:16.302Z,11.40
2017-09-21T22:05:17.253Z,11.40
2017-09-21T22:07:18.199Z,11.40
2017-09-21T22:09:19.153Z,11.30
2017-09-21T22:11:20.105Z,11.40
2017-09-21T22:13:21.048Z,11.40
2017-09-21T22:15:21.996Z,11.30
2017-09-21T22:17:22.939Z,11.30
2017-09-21T22:19:23.889Z,11.20
2017-09-21T22:21:24.826Z,11.30
2017-09-21T22:23:25.772Z,11.30
2017-09-21T22:25:26.721Z,11.20
2017-09-21T22:27:27.662Z,11.20
2017-09-21T22:29:28.638Z,11.20
2017-09-21T22:31:29.609Z,11.20
2017-09-21T22:33:30.564Z,11.20
2017-09-21T22:35:32.253Z,11.10
2017-09-21T22:37:33.201Z,11.10
2017-09-21T22:39:34.177Z,11.00
2017-09-21T22:41:35.141Z,11.00
2017-09-21T22:43:36.115Z,11.00
2017-09-21T22:45:37.796Z,11.00
2017-09-21T22:47:38.752Z,11.00
2017-09-21T22:49:39.712Z,10.90
2017-09-21T22:51:40.672Z,11.00
2017-09-21T22:53:41.624Z,11.00
2017-09-21T22:55:42.583Z,11.00
2017-09-21T22:57:43.536Z,11.00
2017-09-21T22:59:44.488Z,11.00
2017-09-21T23:01:46.177Z,10.90
2017-09-21T23:03:47.133Z,10.90
2017-09-21T23:05:48.080Z,10.90
2017-09-21T23:07:49.029Z,10.90
2017-09-21T23:09:49.984Z,10.90
2017-09-21T23:11:50.933Z,10.90
2017-09-21T23:13:51.909Z,10.90
2017-09-21T23:15:52.861Z,10.80
2017-09-21T23:17:53.808Z,10.80
2017-09-21T23:19:54.812Z,10.80
2017-09-21T23:21:55.760Z,10.90
2017-09-21T23:23:56.751Z,10.90
2017-09-21T23:25:57.689Z,10.80
2017-09-21T23:27:58.650Z,10.80
2017-09-21T23:30:00.358Z,10.80
2017-09-21T23:32:01.310Z,10.80
2017-09-21T23:34:02.285Z,10.80
2017-09-21T23:36:03.241Z,10.70
2017-09-21T23:38:04.197Z,10.70
2017-09-21T23:40:05.889Z,10.70
2017-09-21T23:42:06.836Z,10.70
2017-09-21T23:44:07.793Z,10.70
2017-09-21T23:46:08.916Z,10.70
2017-09-21T23:48:09.876Z,10.70
2017-09-21T23:50:10.841Z,10.70
2017-09-21T23:52:11.805Z,10.70
2017-09-21T23:54:12.768Z,10.60
2017-09-21T23:56:13.736Z,10.60
2017-09-21T23:58:15.436Z,10.50
